Terminal Aerodrome Forecast
Issued by NWS Lake Charles, LA

Home | Current Version | Previous Version | Text Only | Print | Product List | Glossary On
Versions: 1 2 3 4 5 6 7 8 9 10 11 12 13 14 15
457
FTUS44 KLCH 240858 AAA
TAFBPT
TAF AMD
KBPT 240858Z 2409/2506 00000KT 4SM BR SCT002 SCT250
      TEMPO 2409/2413 1/2SM FG VV002
     FM241400 16005KT P6SM SCT025
     FM241800 16007KT P6SM VCTS SCT040CB
     FM250100 VRB03KT P6SM SCT250=

USA.gov is the U.S. government's official web portal to all federal, state and local government web resources and services.